Rosa Maria Juarez — EA4469 — position and weather

sailwx.info

Track history (hours):
 
Tides and Currents Weather Stations Pressure Air Temp Water Temp Dewpoint Dewpoint Depression Visibility Wind Speed Wind Dir Waves Ship Positions

Rosa Maria Juarez

Last reported at 2018-Feb-11 20:20 UTC. Time now 2018-Feb-24 16:38 UTC.
Position N 37°58' W 000°41'.
Warning: this ship's position is 12 days out of date.

Length 18 m.

Type: Fishing. MMSI: 224022730.

Date/timePositionNaut miles runAvg speedWind from/ knotsBaromVisibWave heightAir tempDewpointWater temp
2018-Feb-11 20:20N 37°58' W 000°41'  
2018-Feb-07 23:51N 37°59' W 000°31'2 6.9
2018-Feb-07 23:30N 38°00' W 000°29'10 0.6
2018-Feb-07 07:25N 37°58' W 000°41'3 6.5
2018-Feb-07 06:58N 37°56' W 000°38'1 2.1
2018-Feb-07 06:30N 37°56' W 000°37'0 0.3
2018-Feb-07 05:59N 37°56' W 000°37'0 0.2
2018-Feb-07 05:28N 37°56' W 000°37'0 0.1
2018-Feb-07 05:00N 37°56' W 000°37'1 2.2
2018-Feb-07 04:29N 37°55' W 000°36'0 1.0
2018-Feb-07 04:00N 37°56' W 000°36'0 0.9
2018-Feb-07 03:30N 37°56' W 000°37'0 1.0
2018-Feb-07 03:00N 37°56' W 000°37'0 0.8
2018-Feb-07 02:30N 37°56' W 000°37'1 1.9
2018-Feb-07 02:00N 37°55' W 000°36'0 0.7
2018-Feb-07 01:30N 37°56' W 000°36'0 0.7
2018-Feb-07 01:00N 37°56' W 000°37'1 1.1
2018-Feb-07 00:29N 37°56' W 000°37'4 0.2
2018-Feb-06 07:52N 37°58' W 000°41'3 7.2
2018-Feb-06 07:24N 37°60' W 000°37'1 1.9
2018-Feb-06 07:00N 38°00' W 000°36'1 2.1
2018-Feb-06 06:28N 37°59' W 000°35'2 4.2
2018-Feb-06 05:58N 37°59' W 000°33'1 0.6
2018-Feb-06 04:39N 37°59' W 000°34'0 0.7
2018-Feb-06 04:25N 37°59' W 000°34'1 0.7
2018-Feb-06 03:38N 37°59' W 000°35'0 0.9
2018-Feb-06 03:07N 37°59' W 000°35'1 2.4
2018-Feb-06 02:51N 37°58' W 000°35'0 0.5
2018-Feb-06 02:23N 37°58' W 000°35'0 1.0
2018-Feb-06 01:59N 37°59' W 000°35'1 2.5
2018-Feb-06 01:30N 37°58' W 000°36'1 2.0
2018-Feb-06 01:00N 37°58' W 000°35'0 0.3
2018-Feb-06 00:11N 37°58' W 000°35'0 0.1
2018-Feb-05 23:55N 37°58' W 000°35'0 0.2
2018-Feb-05 23:28N 37°58' W 000°35'0 0.2
2018-Feb-05 22:55N 37°58' W 000°35'1 1.4
2018-Feb-05 22:22N 37°57' W 000°35'2 2.0
2018-Feb-05 21:35N 37°56' W 000°37'0 5.2
2018-Feb-05 21:30N 37°57' W 000°36'1 1.5
2018-Feb-05 21:00N 37°56' W 000°37'4 7.3
2018-Feb-05 20:30N 37°52' W 000°37'2 4.4
2018-Feb-05 20:00N 37°54' W 000°39'5 8.4
2018-Feb-05 19:26N 37°58' W 000°41'0 0.0
2018-Feb-05 07:40N 37°58' W 000°41'0 0.8
2018-Feb-05 07:21N 37°58' W 000°41'  
2018-Feb-02 00:00N 37°58' W 000°41'0 0.4
2018-Feb-01 23:28N 37°58' W 000°41'3 6.9
2018-Feb-01 23:00N 37°59' W 000°37'2 1.4
2018-Feb-01 21:28N 37°58' W 000°40'  
Track history (hours):
 
Tides and Currents Weather Stations Pressure Air Temp Water Temp Dewpoint Dewpoint Depression Visibility Wind Speed Wind Dir Waves Ship Positions

Rosa Maria Juarez

Last reported at 2018-Feb-11 20:20 UTC. Time now 2018-Feb-24 16:38 UTC.
Position N 37°58' W 000°41'.
Warning: this ship's position is 12 days out of date.

Length 18 m.

Type: Fishing. MMSI: 224022730.

Date/timePositionNaut miles runAvg speedWind from/ knotsBaromVisibWave heightAir tempDewpointWater temp
2018-Feb-11 20:20N 37°58' W 000°41'  
2018-Feb-07 23:51N 37°59' W 000°31'2 6.9
2018-Feb-07 23:30N 38°00' W 000°29'10 0.6
2018-Feb-07 07:25N 37°58' W 000°41'3 6.5
2018-Feb-07 06:58N 37°56' W 000°38'1 2.1
2018-Feb-07 06:30N 37°56' W 000°37'0 0.3
2018-Feb-07 05:59N 37°56' W 000°37'0 0.2
2018-Feb-07 05:28N 37°56' W 000°37'0 0.1
2018-Feb-07 05:00N 37°56' W 000°37'1 2.2
2018-Feb-07 04:29N 37°55' W 000°36'0 1.0
2018-Feb-07 04:00N 37°56' W 000°36'0 0.9
2018-Feb-07 03:30N 37°56' W 000°37'0 1.0
2018-Feb-07 03:00N 37°56' W 000°37'0 0.8
2018-Feb-07 02:30N 37°56' W 000°37'1 1.9
2018-Feb-07 02:00N 37°55' W 000°36'0 0.7
2018-Feb-07 01:30N 37°56' W 000°36'0 0.7
2018-Feb-07 01:00N 37°56' W 000°37'1 1.1
2018-Feb-07 00:29N 37°56' W 000°37'4 0.2
2018-Feb-06 07:52N 37°58' W 000°41'3 7.2
2018-Feb-06 07:24N 37°60' W 000°37'1 1.9
2018-Feb-06 07:00N 38°00' W 000°36'1 2.1
2018-Feb-06 06:28N 37°59' W 000°35'2 4.2
2018-Feb-06 05:58N 37°59' W 000°33'1 0.6
2018-Feb-06 04:39N 37°59' W 000°34'0 0.7
2018-Feb-06 04:25N 37°59' W 000°34'1 0.7
2018-Feb-06 03:38N 37°59' W 000°35'0 0.9
2018-Feb-06 03:07N 37°59' W 000°35'1 2.4
2018-Feb-06 02:51N 37°58' W 000°35'0 0.5
2018-Feb-06 02:23N 37°58' W 000°35'0 1.0
2018-Feb-06 01:59N 37°59' W 000°35'1 2.5
2018-Feb-06 01:30N 37°58' W 000°36'1 2.0
2018-Feb-06 01:00N 37°58' W 000°35'0 0.3
2018-Feb-06 00:11N 37°58' W 000°35'0 0.1
2018-Feb-05 23:55N 37°58' W 000°35'0 0.2
2018-Feb-05 23:28N 37°58' W 000°35'0 0.2
2018-Feb-05 22:55N 37°58' W 000°35'1 1.4
2018-Feb-05 22:22N 37°57' W 000°35'2 2.0
2018-Feb-05 21:35N 37°56' W 000°37'0 5.2
2018-Feb-05 21:30N 37°57' W 000°36'1 1.5
2018-Feb-05 21:00N 37°56' W 000°37'4 7.3
2018-Feb-05 20:30N 37°52' W 000°37'2 4.4
2018-Feb-05 20:00N 37°54' W 000°39'5 8.4
2018-Feb-05 19:26N 37°58' W 000°41'0 0.0
2018-Feb-05 07:40N 37°58' W 000°41'0 0.8
2018-Feb-05 07:21N 37°58' W 000°41'  
2018-Feb-02 00:00N 37°58' W 000°41'0 0.4
2018-Feb-01 23:28N 37°58' W 000°41'3 6.9
2018-Feb-01 23:00N 37°59' W 000°37'2 1.4
2018-Feb-01 21:28N 37°58' W 000°40'  

Dump ship's entire track history